sensor_id;sensor_type;location;lat;lon;timestamp;P1;durP1;ratioP1;P2;durP2;ratioP2
5742;SDS011;2896;53.500;10.020;2023-11-18T00:01:59;10.07;;;7.70;;
5742;SDS011;2896;53.500;10.020;2023-11-18T00:04:26;7.60;;;6.77;;
5742;SDS011;2896;53.500;10.020;2023-11-18T00:06:53;16.50;;;7.73;;
5742;SDS011;2896;53.500;10.020;2023-11-18T00:09:19;11.07;;;7.90;;
5742;SDS011;2896;53.500;10.020;2023-11-18T00:11:49;7.33;;;6.57;;
5742;SDS011;2896;53.500;10.020;2023-11-18T00:14:15;6.63;;;6.00;;
5742;SDS011;2896;53.500;10.020;2023-11-18T00:16:43;9.33;;;8.10;;
5742;SDS011;2896;53.500;10.020;2023-11-18T00:19:09;12.60;;;9.10;;
5742;SDS011;2896;53.500;10.020;2023-11-18T00:21:36;8.83;;;7.17;;
5742;SDS011;2896;53.500;10.020;2023-11-18T00:24:03;7.93;;;7.00;;
5742;SDS011;2896;53.500;10.020;2023-11-18T00:26:33;8.83;;;6.90;;
5742;SDS011;2896;53.500;10.020;2023-11-18T00:29:01;6.60;;;5.77;;
5742;SDS011;2896;53.500;10.020;2023-11-18T00:31:27;7.37;;;6.57;;
5742;SDS011;2896;53.500;10.020;2023-11-18T00:33:54;20.20;;;10.80;;
5742;SDS011;2896;53.500;10.020;2023-11-18T00:36:21;15.70;;;9.60;;
5742;SDS011;2896;53.500;10.020;2023-11-18T00:38:48;14.53;;;8.50;;
5742;SDS011;2896;53.500;10.020;2023-11-18T00:41:15;16.03;;;10.57;;
5742;SDS011;2896;53.500;10.020;2023-11-18T00:43:42;16.03;;;10.70;;
5742;SDS011;2896;53.500;10.020;2023-11-18T00:46:10;16.70;;;10.67;;
5742;SDS011;2896;53.500;10.020;2023-11-18T00:48:37;13.13;;;9.30;;
5742;SDS011;2896;53.500;10.020;2023-11-18T00:51:04;9.83;;;7.77;;
5742;SDS011;2896;53.500;10.020;2023-11-18T00:53:32;8.13;;;7.33;;
5742;SDS011;2896;53.500;10.020;2023-11-18T00:55:59;7.73;;;6.63;;
5742;SDS011;2896;53.500;10.020;2023-11-18T00:58:26;9.67;;;7.03;;
5742;SDS011;2896;53.500;10.020;2023-11-18T01:00:53;12.40;;;9.40;;
5742;SDS011;2896;53.500;10.020;2023-11-18T01:03:21;7.70;;;6.67;;
5742;SDS011;2896;53.500;10.020;2023-11-18T01:05:48;9.10;;;7.77;;
5742;SDS011;2896;53.500;10.020;2023-11-18T01:08:15;6.70;;;6.00;;
5742;SDS011;2896;53.500;10.020;2023-11-18T01:10:42;7.40;;;6.60;;
5742;SDS011;2896;53.500;10.020;2023-11-18T01:13:09;12.17;;;7.30;;
5742;SDS011;2896;53.500;10.020;2023-11-18T01:15:35;8.70;;;7.80;;
5742;SDS011;2896;53.500;10.020;2023-11-18T01:18:02;7.53;;;6.83;;
5742;SDS011;2896;53.500;10.020;2023-11-18T01:20:30;7.20;;;6.50;;
5742;SDS011;2896;53.500;10.020;2023-11-18T01:22:57;11.47;;;7.00;;
5742;SDS011;2896;53.500;10.020;2023-11-18T01:25:23;6.03;;;5.53;;
5742;SDS011;2896;53.500;10.020;2023-11-18T01:27:50;6.47;;;5.80;;
5742;SDS011;2896;53.500;10.020;2023-11-18T01:30:17;7.23;;;6.50;;
5742;SDS011;2896;53.500;10.020;2023-11-18T01:32:43;12.30;;;6.23;;
5742;SDS011;2896;53.500;10.020;2023-11-18T01:35:11;6.90;;;6.07;;
5742;SDS011;2896;53.500;10.020;2023-11-18T01:37:39;8.70;;;6.53;;
5742;SDS011;2896;53.500;10.020;2023-11-18T01:40:06;6.23;;;5.63;;
5742;SDS011;2896;53.500;10.020;2023-11-18T01:42:33;5.60;;;5.10;;
5742;SDS011;2896;53.500;10.020;2023-11-18T01:45:02;10.57;;;6.80;;
5742;SDS011;2896;53.500;10.020;2023-11-18T01:47:30;7.07;;;6.37;;
5742;SDS011;2896;53.500;10.020;2023-11-18T01:49:58;7.27;;;6.50;;
5742;SDS011;2896;53.500;10.020;2023-11-18T01:52:26;6.80;;;5.97;;
5742;SDS011;2896;53.500;10.020;2023-11-18T01:54:56;6.97;;;6.37;;
5742;SDS011;2896;53.500;10.020;2023-11-18T01:57:23;7.73;;;6.23;;
5742;SDS011;2896;53.500;10.020;2023-11-18T01:59:51;8.43;;;7.53;;
5742;SDS011;2896;53.500;10.020;2023-11-18T02:02:19;6.47;;;5.87;;
5742;SDS011;2896;53.500;10.020;2023-11-18T02:04:46;7.20;;;6.50;;
5742;SDS011;2896;53.500;10.020;2023-11-18T02:07:13;6.43;;;5.83;;
5742;SDS011;2896;53.500;10.020;2023-11-18T02:09:40;7.50;;;6.67;;
5742;SDS011;2896;53.500;10.020;2023-11-18T02:12:11;6.30;;;5.77;;
5742;SDS011;2896;53.500;10.020;2023-11-18T02:17:12;7.50;;;6.47;;
5742;SDS011;2896;53.500;10.020;2023-11-18T02:19:43;10.13;;;8.27;;
5742;SDS011;2896;53.500;10.020;2023-11-18T02:22:10;9.80;;;6.67;;
5742;SDS011;2896;53.500;10.020;2023-11-18T02:24:38;9.30;;;7.40;;
5742;SDS011;2896;53.500;10.020;2023-11-18T02:27:07;9.40;;;7.37;;
5742;SDS011;2896;53.500;10.020;2023-11-18T02:29:37;10.47;;;7.33;;
5742;SDS011;2896;53.500;10.020;2023-11-18T02:32:09;11.60;;;8.37;;
5742;SDS011;2896;53.500;10.020;2023-11-18T02:34:45;10.53;;;7.80;;
5742;SDS011;2896;53.500;10.020;2023-11-18T02:37:16;8.63;;;7.17;;
5742;SDS011;2896;53.500;10.020;2023-11-18T02:39:43;10.30;;;8.63;;
5742;SDS011;2896;53.500;10.020;2023-11-18T02:42:15;16.10;;;9.17;;
5742;SDS011;2896;53.500;10.020;2023-11-18T02:44:42;10.10;;;8.10;;
5742;SDS011;2896;53.500;10.020;2023-11-18T02:47:10;11.67;;;8.90;;
5742;SDS011;2896;53.500;10.020;2023-11-18T02:49:37;9.97;;;8.17;;
5742;SDS011;2896;53.500;10.020;2023-11-18T02:52:04;8.97;;;8.03;;
5742;SDS011;2896;53.500;10.020;2023-11-18T02:54:31;10.50;;;7.83;;
5742;SDS011;2896;53.500;10.020;2023-11-18T02:56:57;10.17;;;8.43;;
5742;SDS011;2896;53.500;10.020;2023-11-18T02:59:26;10.90;;;8.03;;
5742;SDS011;2896;53.500;10.020;2023-11-18T03:01:55;9.80;;;7.93;;
5742;SDS011;2896;53.500;10.020;2023-11-18T03:04:21;11.63;;;8.57;;
5742;SDS011;2896;53.500;10.020;2023-11-18T03:06:49;11.40;;;8.83;;
5742;SDS011;2896;53.500;10.020;2023-11-18T03:09:16;10.70;;;7.90;;
5742;SDS011;2896;53.500;10.020;2023-11-18T03:11:43;10.07;;;8.43;;
5742;SDS011;2896;53.500;10.020;2023-11-18T03:14:10;9.00;;;7.93;;
5742;SDS011;2896;53.500;10.020;2023-11-18T03:16:38;10.37;;;8.60;;
5742;SDS011;2896;53.500;10.020;2023-11-18T03:19:05;10.00;;;8.37;;
5742;SDS011;2896;53.500;10.020;2023-11-18T03:21:33;9.17;;;7.80;;
5742;SDS011;2896;53.500;10.020;2023-11-18T03:24:00;10.40;;;8.57;;
5742;SDS011;2896;53.500;10.020;2023-11-18T03:26:27;11.33;;;8.37;;
5742;SDS011;2896;53.500;10.020;2023-11-18T03:28:53;11.23;;;8.93;;
5742;SDS011;2896;53.500;10.020;2023-11-18T03:31:20;12.20;;;8.63;;
5742;SDS011;2896;53.500;10.020;2023-11-18T03:33:48;13.00;;;8.40;;
5742;SDS011;2896;53.500;10.020;2023-11-18T03:36:15;12.23;;;9.27;;
5742;SDS011;2896;53.500;10.020;2023-11-18T03:38:43;13.27;;;9.17;;
5742;SDS011;2896;53.500;10.020;2023-11-18T03:41:09;9.43;;;8.50;;
5742;SDS011;2896;53.500;10.020;2023-11-18T03:43:37;14.30;;;9.83;;
5742;SDS011;2896;53.500;10.020;2023-11-18T03:46:04;12.03;;;8.93;;
5742;SDS011;2896;53.500;10.020;2023-11-18T03:48:32;12.70;;;8.90;;
5742;SDS011;2896;53.500;10.020;2023-11-18T03:51:00;11.83;;;8.40;;
5742;SDS011;2896;53.500;10.020;2023-11-18T03:53:28;11.80;;;8.20;;
5742;SDS011;2896;53.500;10.020;2023-11-18T03:55:55;11.20;;;8.50;;
5742;SDS011;2896;53.500;10.020;2023-11-18T03:58:21;9.97;;;8.10;;
5742;SDS011;2896;53.500;10.020;2023-11-18T04:00:48;10.57;;;9.07;;
5742;SDS011;2896;53.500;10.020;2023-11-18T04:03:15;9.07;;;8.17;;
5742;SDS011;2896;53.500;10.020;2023-11-18T04:05:41;10.50;;;7.63;;
5742;SDS011;2896;53.500;10.020;2023-11-18T04:08:09;9.73;;;8.73;;
5742;SDS011;2896;53.500;10.020;2023-11-18T04:10:36;12.27;;;8.67;;
5742;SDS011;2896;53.500;10.020;2023-11-18T04:13:03;14.47;;;9.27;;
5742;SDS011;2896;53.500;10.020;2023-11-18T04:15:30;13.03;;;8.40;;
5742;SDS011;2896;53.500;10.020;2023-11-18T04:17:56;10.27;;;9.20;;
5742;SDS011;2896;53.500;10.020;2023-11-18T04:20:23;11.40;;;8.17;;
5742;SDS011;2896;53.500;10.020;2023-11-18T04:22:50;9.73;;;7.67;;
5742;SDS011;2896;53.500;10.020;2023-11-18T04:25:18;8.63;;;7.00;;
5742;SDS011;2896;53.500;10.020;2023-11-18T04:27:46;9.00;;;7.03;;
5742;SDS011;2896;53.500;10.020;2023-11-18T04:30:13;9.17;;;7.13;;
5742;SDS011;2896;53.500;10.020;2023-11-18T04:32:40;7.83;;;7.03;;
5742;SDS011;2896;53.500;10.020;2023-11-18T04:35:07;7.83;;;6.60;;
5742;SDS011;2896;53.500;10.020;2023-11-18T04:37:36;9.53;;;6.97;;
5742;SDS011;2896;53.500;10.020;2023-11-18T04:40:08;8.73;;;7.03;;
5742;SDS011;2896;53.500;10.020;2023-11-18T04:42:37;8.47;;;7.60;;
5742;SDS011;2896;53.500;10.020;2023-11-18T04:45:04;7.73;;;6.93;;
5742;SDS011;2896;53.500;10.020;2023-11-18T04:47:32;6.50;;;5.73;;
5742;SDS011;2896;53.500;10.020;2023-11-18T04:49:58;10.40;;;6.83;;
5742;SDS011;2896;53.500;10.020;2023-11-18T04:52:25;9.40;;;8.03;;
5742;SDS011;2896;53.500;10.020;2023-11-18T04:54:52;7.83;;;6.70;;
5742;SDS011;2896;53.500;10.020;2023-11-18T04:57:19;10.60;;;8.00;;
5742;SDS011;2896;53.500;10.020;2023-11-18T04:59:47;8.33;;;7.00;;
5742;SDS011;2896;53.500;10.020;2023-11-18T05:02:14;8.13;;;6.70;;
5742;SDS011;2896;53.500;10.020;2023-11-18T05:04:41;8.07;;;6.60;;
5742;SDS011;2896;53.500;10.020;2023-11-18T05:07:07;7.90;;;6.47;;
5742;SDS011;2896;53.500;10.020;2023-11-18T05:09:34;8.43;;;7.10;;
5742;SDS011;2896;53.500;10.020;2023-11-18T05:12:00;8.47;;;7.17;;
5742;SDS011;2896;53.500;10.020;2023-11-18T05:14:27;9.80;;;7.77;;
5742;SDS011;2896;53.500;10.020;2023-11-18T05:16:56;11.13;;;8.30;;
5742;SDS011;2896;53.500;10.020;2023-11-18T05:19:22;11.60;;;8.50;;
5742;SDS011;2896;53.500;10.020;2023-11-18T05:21:50;8.77;;;7.53;;
5742;SDS011;2896;53.500;10.020;2023-11-18T05:24:17;8.10;;;7.20;;
5742;SDS011;2896;53.500;10.020;2023-11-18T05:26:43;10.60;;;7.20;;
5742;SDS011;2896;53.500;10.020;2023-11-18T05:29:10;9.83;;;8.07;;
5742;SDS011;2896;53.500;10.020;2023-11-18T05:31:41;6.83;;;6.20;;
5742;SDS011;2896;53.500;10.020;2023-11-18T05:34:09;9.33;;;7.40;;
5742;SDS011;2896;53.500;10.020;2023-11-18T05:36:37;11.07;;;7.60;;
5742;SDS011;2896;53.500;10.020;2023-11-18T05:39:05;7.60;;;6.80;;
5742;SDS011;2896;53.500;10.020;2023-11-18T05:41:32;7.23;;;6.27;;
5742;SDS011;2896;53.500;10.020;2023-11-18T05:44:00;7.97;;;7.17;;
5742;SDS011;2896;53.500;10.020;2023-11-18T05:46:26;10.63;;;7.40;;
5742;SDS011;2896;53.500;10.020;2023-11-18T05:48:54;8.47;;;7.00;;
5742;SDS011;2896;53.500;10.020;2023-11-18T05:51:24;7.40;;;6.10;;
5742;SDS011;2896;53.500;10.020;2023-11-18T05:53:51;11.47;;;7.40;;
5742;SDS011;2896;53.500;10.020;2023-11-18T05:56:18;9.43;;;7.70;;
5742;SDS011;2896;53.500;10.020;2023-11-18T05:58:47;10.50;;;8.40;;
5742;SDS011;2896;53.500;10.020;2023-11-18T06:01:14;8.20;;;7.40;;
5742;SDS011;2896;53.500;10.020;2023-11-18T06:03:42;8.50;;;7.43;;
5742;SDS011;2896;53.500;10.020;2023-11-18T06:06:10;11.40;;;8.70;;
5742;SDS011;2896;53.500;10.020;2023-11-18T06:08:42;11.37;;;8.57;;
5742;SDS011;2896;53.500;10.020;2023-11-18T06:11:09;15.03;;;8.73;;
5742;SDS011;2896;53.500;10.020;2023-11-18T06:13:39;9.43;;;8.43;;
5742;SDS011;2896;53.500;10.020;2023-11-18T06:16:12;12.13;;;9.20;;
5742;SDS011;2896;53.500;10.020;2023-11-18T06:18:40;9.87;;;7.73;;
5742;SDS011;2896;53.500;10.020;2023-11-18T06:21:10;10.20;;;8.27;;
5742;SDS011;2896;53.500;10.020;2023-11-18T06:23:37;10.50;;;7.90;;
5742;SDS011;2896;53.500;10.020;2023-11-18T06:26:05;12.13;;;7.63;;
5742;SDS011;2896;53.500;10.020;2023-11-18T06:28:32;7.83;;;7.03;;
5742;SDS011;2896;53.500;10.020;2023-11-18T06:30:59;13.00;;;7.57;;
5742;SDS011;2896;53.500;10.020;2023-11-18T06:33:25;9.63;;;7.87;;
5742;SDS011;2896;53.500;10.020;2023-11-18T06:35:52;9.20;;;7.03;;
5742;SDS011;2896;53.500;10.020;2023-11-18T06:38:21;8.07;;;7.03;;
5742;SDS011;2896;53.500;10.020;2023-11-18T06:40:47;9.07;;;6.87;;
5742;SDS011;2896;53.500;10.020;2023-11-18T06:43:18;10.00;;;8.37;;
5742;SDS011;2896;53.500;10.020;2023-11-18T06:45:45;11.30;;;8.60;;
5742;SDS011;2896;53.500;10.020;2023-11-18T06:48:13;9.60;;;8.03;;
5742;SDS011;2896;53.500;10.020;2023-11-18T06:50:43;11.07;;;7.90;;
5742;SDS011;2896;53.500;10.020;2023-11-18T06:53:10;7.87;;;7.07;;
5742;SDS011;2896;53.500;10.020;2023-11-18T06:55:36;9.37;;;7.43;;
5742;SDS011;2896;53.500;10.020;2023-11-18T06:58:03;7.73;;;7.00;;
5742;SDS011;2896;53.500;10.020;2023-11-18T07:00:31;12.47;;;9.73;;
5742;SDS011;2896;53.500;10.020;2023-11-18T07:02:57;11.20;;;8.40;;
5742;SDS011;2896;53.500;10.020;2023-11-18T07:05:26;8.10;;;7.07;;
5742;SDS011;2896;53.500;10.020;2023-11-18T07:07:53;11.73;;;8.00;;
5742;SDS011;2896;53.500;10.020;2023-11-18T07:10:20;9.33;;;8.33;;
5742;SDS011;2896;53.500;10.020;2023-11-18T07:12:47;14.13;;;8.93;;
5742;SDS011;2896;53.500;10.020;2023-11-18T07:15:13;8.27;;;7.40;;
5742;SDS011;2896;53.500;10.020;2023-11-18T07:17:42;10.40;;;8.47;;
5742;SDS011;2896;53.500;10.020;2023-11-18T07:20:08;10.77;;;8.33;;
5742;SDS011;2896;53.500;10.020;2023-11-18T07:22:38;11.53;;;9.13;;
5742;SDS011;2896;53.500;10.020;2023-11-18T07:25:06;12.60;;;9.00;;
5742;SDS011;2896;53.500;10.020;2023-11-18T07:27:34;11.80;;;9.67;;
5742;SDS011;2896;53.500;10.020;2023-11-18T07:30:01;10.80;;;8.50;;
5742;SDS011;2896;53.500;10.020;2023-11-18T07:32:31;16.80;;;11.50;;
5742;SDS011;2896;53.500;10.020;2023-11-18T07:35:00;16.73;;;11.37;;
5742;SDS011;2896;53.500;10.020;2023-11-18T07:37:26;16.73;;;11.10;;
5742;SDS011;2896;53.500;10.020;2023-11-18T07:39:53;16.27;;;10.80;;
5742;SDS011;2896;53.500;10.020;2023-11-18T07:42:20;20.80;;;11.90;;
5742;SDS011;2896;53.500;10.020;2023-11-18T07:44:47;17.00;;;11.30;;
5742;SDS011;2896;53.500;10.020;2023-11-18T07:47:13;14.70;;;10.77;;
5742;SDS011;2896;53.500;10.020;2023-11-18T07:49:41;16.03;;;11.33;;
5742;SDS011;2896;53.500;10.020;2023-11-18T07:52:09;14.03;;;10.20;;
5742;SDS011;2896;53.500;10.020;2023-11-18T07:54:35;12.97;;;8.93;;
5742;SDS011;2896;53.500;10.020;2023-11-18T07:57:03;17.70;;;10.37;;
5742;SDS011;2896;53.500;10.020;2023-11-18T07:59:30;17.67;;;11.23;;
5742;SDS011;2896;53.500;10.020;2023-11-18T08:01:57;15.23;;;10.00;;
5742;SDS011;2896;53.500;10.020;2023-11-18T08:04:26;14.97;;;10.60;;
5742;SDS011;2896;53.500;10.020;2023-11-18T08:06:52;15.23;;;10.20;;
5742;SDS011;2896;53.500;10.020;2023-11-18T08:09:21;16.97;;;10.97;;
5742;SDS011;2896;53.500;10.020;2023-11-18T08:11:50;16.63;;;11.47;;
5742;SDS011;2896;53.500;10.020;2023-11-18T08:14:20;22.23;;;11.60;;
5742;SDS011;2896;53.500;10.020;2023-11-18T08:16:47;21.87;;;11.87;;
5742;SDS011;2896;53.500;10.020;2023-11-18T08:19:14;18.80;;;11.50;;
5742;SDS011;2896;53.500;10.020;2023-11-18T08:21:41;16.63;;;11.50;;
5742;SDS011;2896;53.500;10.020;2023-11-18T08:24:07;19.77;;;12.87;;
5742;SDS011;2896;53.500;10.020;2023-11-18T08:26:35;18.67;;;11.80;;
5742;SDS011;2896;53.500;10.020;2023-11-18T08:29:02;20.83;;;11.90;;
5742;SDS011;2896;53.500;10.020;2023-11-18T08:31:29;17.27;;;10.73;;
5742;SDS011;2896;53.500;10.020;2023-11-18T08:33:57;16.60;;;10.93;;
5742;SDS011;2896;53.500;10.020;2023-11-18T08:36:25;16.97;;;10.90;;
5742;SDS011;2896;53.500;10.020;2023-11-18T08:38:52;14.73;;;10.27;;
5742;SDS011;2896;53.500;10.020;2023-11-18T08:41:21;18.23;;;11.27;;
5742;SDS011;2896;53.500;10.020;2023-11-18T08:43:50;14.63;;;9.60;;
5742;SDS011;2896;53.500;10.020;2023-11-18T08:46:17;14.87;;;9.07;;
5742;SDS011;2896;53.500;10.020;2023-11-18T08:48:43;16.40;;;10.80;;
5742;SDS011;2896;53.500;10.020;2023-11-18T08:51:10;15.87;;;10.00;;
5742;SDS011;2896;53.500;10.020;2023-11-18T08:53:38;17.50;;;10.70;;
5742;SDS011;2896;53.500;10.020;2023-11-18T08:56:07;16.27;;;10.40;;
5742;SDS011;2896;53.500;10.020;2023-11-18T08:58:38;14.37;;;8.70;;
5742;SDS011;2896;53.500;10.020;2023-11-18T09:01:08;12.70;;;8.83;;
5742;SDS011;2896;53.500;10.020;2023-11-18T09:03:39;13.30;;;9.80;;
5742;SDS011;2896;53.500;10.020;2023-11-18T09:06:08;13.20;;;9.10;;
5742;SDS011;2896;53.500;10.020;2023-11-18T09:08:42;12.63;;;9.50;;
5742;SDS011;2896;53.500;10.020;2023-11-18T09:11:10;17.57;;;10.80;;
5742;SDS011;2896;53.500;10.020;2023-11-18T09:13:39;16.87;;;10.33;;
5742;SDS011;2896;53.500;10.020;2023-11-18T09:16:09;13.53;;;9.60;;
5742;SDS011;2896;53.500;10.020;2023-11-18T09:18:36;13.40;;;8.70;;
5742;SDS011;2896;53.500;10.020;2023-11-18T09:21:04;20.13;;;11.20;;
5742;SDS011;2896;53.500;10.020;2023-11-18T09:23:32;14.80;;;10.07;;
5742;SDS011;2896;53.500;10.020;2023-11-18T09:26:00;12.17;;;9.40;;
5742;SDS011;2896;53.500;10.020;2023-11-18T09:28:27;15.00;;;9.70;;
5742;SDS011;2896;53.500;10.020;2023-11-18T09:30:54;13.10;;;9.70;;
5742;SDS011;2896;53.500;10.020;2023-11-18T09:33:24;13.63;;;9.57;;
5742;SDS011;2896;53.500;10.020;2023-11-18T09:35:51;13.10;;;9.70;;
5742;SDS011;2896;53.500;10.020;2023-11-18T09:38:21;14.33;;;10.00;;
5742;SDS011;2896;53.500;10.020;2023-11-18T09:40:48;12.63;;;9.00;;
5742;SDS011;2896;53.500;10.020;2023-11-18T09:43:17;12.70;;;8.60;;
5742;SDS011;2896;53.500;10.020;2023-11-18T09:45:45;12.40;;;9.17;;
5742;SDS011;2896;53.500;10.020;2023-11-18T09:48:12;16.23;;;10.13;;
5742;SDS011;2896;53.500;10.020;2023-11-18T09:50:46;13.40;;;9.07;;
5742;SDS011;2896;53.500;10.020;2023-11-18T09:53:16;14.60;;;9.43;;
5742;SDS011;2896;53.500;10.020;2023-11-18T09:55:47;14.70;;;8.77;;
5742;SDS011;2896;53.500;10.020;2023-11-18T09:58:20;12.53;;;8.33;;
5742;SDS011;2896;53.500;10.020;2023-11-18T10:00:49;12.37;;;8.20;;
5742;SDS011;2896;53.500;10.020;2023-11-18T10:03:20;9.23;;;8.20;;
5742;SDS011;2896;53.500;10.020;2023-11-18T10:05:49;11.33;;;8.70;;
5742;SDS011;2896;53.500;10.020;2023-11-18T10:08:20;13.30;;;8.67;;
5742;SDS011;2896;53.500;10.020;2023-11-18T10:10:50;9.43;;;7.50;;
5742;SDS011;2896;53.500;10.020;2023-11-18T10:13:30;10.13;;;7.90;;
5742;SDS011;2896;53.500;10.020;2023-11-18T10:16:01;10.07;;;7.80;;
5742;SDS011;2896;53.500;10.020;2023-11-18T10:18:30;14.70;;;8.27;;
5742;SDS011;2896;53.500;10.020;2023-11-18T10:21:01;11.20;;;8.00;;
5742;SDS011;2896;53.500;10.020;2023-11-18T10:23:29;10.90;;;7.40;;
5742;SDS011;2896;53.500;10.020;2023-11-18T10:25:59;10.07;;;8.17;;
5742;SDS011;2896;53.500;10.020;2023-11-18T10:28:28;7.97;;;6.60;;
5742;SDS011;2896;53.500;10.020;2023-11-18T10:30:58;9.27;;;7.50;;
5742;SDS011;2896;53.500;10.020;2023-11-18T10:33:28;9.20;;;7.50;;
5742;SDS011;2896;53.500;10.020;2023-11-18T10:35:56;9.60;;;7.80;;
5742;SDS011;2896;53.500;10.020;2023-11-18T10:38:24;10.03;;;6.70;;
5742;SDS011;2896;53.500;10.020;2023-11-18T10:40:54;7.10;;;6.43;;
5742;SDS011;2896;53.500;10.020;2023-11-18T10:43:22;7.60;;;6.80;;
5742;SDS011;2896;53.500;10.020;2023-11-18T10:45:51;15.90;;;6.37;;
5742;SDS011;2896;53.500;10.020;2023-11-18T10:48:18;6.27;;;5.70;;
5742;SDS011;2896;53.500;10.020;2023-11-18T10:50:46;7.00;;;6.30;;
5742;SDS011;2896;53.500;10.020;2023-11-18T10:53:15;17.37;;;6.13;;
5742;SDS011;2896;53.500;10.020;2023-11-18T10:55:44;10.30;;;6.50;;
5742;SDS011;2896;53.500;10.020;2023-11-18T10:58:11;7.87;;;6.10;;
5742;SDS011;2896;53.500;10.020;2023-11-18T11:00:45;5.43;;;5.03;;
5742;SDS011;2896;53.500;10.020;2023-11-18T11:03:13;5.43;;;4.93;;
5742;SDS011;2896;53.500;10.020;2023-11-18T11:05:40;11.63;;;5.93;;
5742;SDS011;2896;53.500;10.020;2023-11-18T11:08:08;7.20;;;5.63;;
5742;SDS011;2896;53.500;10.020;2023-11-18T11:10:38;7.20;;;5.50;;
5742;SDS011;2896;53.500;10.020;2023-11-18T11:13:08;6.10;;;5.50;;
5742;SDS011;2896;53.500;10.020;2023-11-18T11:15:36;6.27;;;5.67;;
5742;SDS011;2896;53.500;10.020;2023-11-18T11:18:10;5.23;;;4.90;;
5742;SDS011;2896;53.500;10.020;2023-11-18T11:20:41;6.67;;;6.03;;
5742;SDS011;2896;53.500;10.020;2023-11-18T11:23:14;10.87;;;6.00;;
5742;SDS011;2896;53.500;10.020;2023-11-18T11:25:50;11.50;;;5.53;;
5742;SDS011;2896;53.500;10.020;2023-11-18T11:28:27;7.10;;;6.20;;
5742;SDS011;2896;53.500;10.020;2023-11-18T11:31:02;6.17;;;5.67;;
5742;SDS011;2896;53.500;10.020;2023-11-18T11:33:43;9.67;;;5.57;;
5742;SDS011;2896;53.500;10.020;2023-11-18T11:36:28;7.20;;;5.70;;
5742;SDS011;2896;53.500;10.020;2023-11-18T11:38:58;7.20;;;6.50;;
5742;SDS011;2896;53.500;10.020;2023-11-18T11:41:26;6.43;;;5.83;;
5742;SDS011;2896;53.500;10.020;2023-11-18T11:43:56;6.97;;;5.00;;
5742;SDS011;2896;53.500;10.020;2023-11-18T11:46:24;6.17;;;5.57;;
5742;SDS011;2896;53.500;10.020;2023-11-18T11:48:58;6.30;;;5.70;;
5742;SDS011;2896;53.500;10.020;2023-11-18T11:51:34;6.63;;;5.93;;
5742;SDS011;2896;53.500;10.020;2023-11-18T11:54:06;5.17;;;4.60;;
5742;SDS011;2896;53.500;10.020;2023-11-18T11:56:46;8.20;;;4.93;;
5742;SDS011;2896;53.500;10.020;2023-11-18T11:59:16;5.77;;;5.27;;
5742;SDS011;2896;53.500;10.020;2023-11-18T12:01:46;9.57;;;5.90;;
5742;SDS011;2896;53.500;10.020;2023-11-18T12:04:17;5.10;;;4.70;;
5742;SDS011;2896;53.500;10.020;2023-11-18T12:06:48;6.60;;;4.90;;
5742;SDS011;2896;53.500;10.020;2023-11-18T12:09:18;4.93;;;4.47;;
5742;SDS011;2896;53.500;10.020;2023-11-18T12:11:45;4.90;;;4.50;;
5742;SDS011;2896;53.500;10.020;2023-11-18T12:14:13;4.93;;;4.30;;
5742;SDS011;2896;53.500;10.020;2023-11-18T12:17:06;4.67;;;4.20;;
5742;SDS011;2896;53.500;10.020;2023-11-18T12:19:35;4.67;;;4.00;;
5742;SDS011;2896;53.500;10.020;2023-11-18T12:22:09;8.00;;;4.80;;
5742;SDS011;2896;53.500;10.020;2023-11-18T12:24:42;3.90;;;3.70;;
5742;SDS011;2896;53.500;10.020;2023-11-18T12:27:12;6.03;;;4.00;;
5742;SDS011;2896;53.500;10.020;2023-11-18T12:29:42;4.07;;;3.77;;
5742;SDS011;2896;53.500;10.020;2023-11-18T12:32:09;4.13;;;3.83;;
5742;SDS011;2896;53.500;10.020;2023-11-18T12:34:50;6.50;;;3.63;;
5742;SDS011;2896;53.500;10.020;2023-11-18T12:40:46;9.00;;;3.50;;
5742;SDS011;2896;53.500;10.020;2023-11-18T12:43:22;4.03;;;3.73;;
5742;SDS011;2896;53.500;10.020;2023-11-18T12:49:18;4.13;;;3.93;;
5742;SDS011;2896;53.500;10.020;2023-11-18T12:51:48;3.70;;;3.40;;
5742;SDS011;2896;53.500;10.020;2023-11-18T12:54:14;3.23;;;3.03;;
5742;SDS011;2896;53.500;10.020;2023-11-18T12:56:43;4.13;;;3.77;;
5742;SDS011;2896;53.500;10.020;2023-11-18T12:59:13;3.57;;;3.37;;
5742;SDS011;2896;53.500;10.020;2023-11-18T13:01:42;3.73;;;3.20;;
5742;SDS011;2896;53.500;10.020;2023-11-18T13:04:17;4.00;;;3.70;;
5742;SDS011;2896;53.500;10.020;2023-11-18T13:06:45;3.90;;;3.57;;
5742;SDS011;2896;53.500;10.020;2023-11-18T13:09:13;4.13;;;3.93;;
5742;SDS011;2896;53.500;10.020;2023-11-18T13:11:53;3.67;;;3.47;;
5742;SDS011;2896;53.500;10.020;2023-11-18T13:14:22;4.60;;;4.20;;
5742;SDS011;2896;53.500;10.020;2023-11-18T13:16:51;6.30;;;3.57;;
5742;SDS011;2896;53.500;10.020;2023-11-18T13:19:25;4.03;;;3.83;;
5742;SDS011;2896;53.500;10.020;2023-11-18T13:21:56;4.50;;;4.10;;
5742;SDS011;2896;53.500;10.020;2023-11-18T13:24:24;5.57;;;4.90;;
5742;SDS011;2896;53.500;10.020;2023-11-18T13:26:52;5.23;;;4.83;;
5742;SDS011;2896;53.500;10.020;2023-11-18T13:29:20;7.30;;;4.10;;
5742;SDS011;2896;53.500;10.020;2023-11-18T13:31:48;4.10;;;3.90;;
5742;SDS011;2896;53.500;10.020;2023-11-18T13:34:15;4.47;;;4.10;;
5742;SDS011;2896;53.500;10.020;2023-11-18T13:36:44;4.77;;;4.43;;
5742;SDS011;2896;53.500;10.020;2023-11-18T13:39:15;4.30;;;4.00;;
5742;SDS011;2896;53.500;10.020;2023-11-18T13:41:42;4.10;;;3.57;;
5742;SDS011;2896;53.500;10.020;2023-11-18T13:44:10;5.20;;;4.80;;
5742;SDS011;2896;53.500;10.020;2023-11-18T13:46:37;5.03;;;4.60;;
5742;SDS011;2896;53.500;10.020;2023-11-18T13:49:05;6.53;;;5.83;;
5742;SDS011;2896;53.500;10.020;2023-11-18T13:51:33;5.17;;;4.80;;
5742;SDS011;2896;53.500;10.020;2023-11-18T13:54:02;5.80;;;5.30;;
5742;SDS011;2896;53.500;10.020;2023-11-18T13:56:30;5.00;;;4.60;;
5742;SDS011;2896;53.500;10.020;2023-11-18T13:58:57;6.80;;;4.43;;
5742;SDS011;2896;53.500;10.020;2023-11-18T14:01:24;5.80;;;4.73;;
5742;SDS011;2896;53.500;10.020;2023-11-18T14:03:52;6.37;;;5.80;;
5742;SDS011;2896;53.500;10.020;2023-11-18T14:06:21;6.57;;;5.20;;
5742;SDS011;2896;53.500;10.020;2023-11-18T14:08:48;7.43;;;6.57;;
5742;SDS011;2896;53.500;10.020;2023-11-18T14:11:16;9.60;;;6.30;;
5742;SDS011;2896;53.500;10.020;2023-11-18T14:13:43;6.73;;;6.03;;
5742;SDS011;2896;53.500;10.020;2023-11-18T14:16:10;5.30;;;4.90;;
5742;SDS011;2896;53.500;10.020;2023-11-18T14:18:37;6.53;;;5.90;;
5742;SDS011;2896;53.500;10.020;2023-11-18T14:21:06;9.50;;;6.30;;
5742;SDS011;2896;53.500;10.020;2023-11-18T14:23:33;6.87;;;6.13;;
5742;SDS011;2896;53.500;10.020;2023-11-18T14:25:59;6.67;;;5.47;;
5742;SDS011;2896;53.500;10.020;2023-11-18T14:28:27;6.80;;;6.10;;
5742;SDS011;2896;53.500;10.020;2023-11-18T14:30:54;8.60;;;6.83;;
5742;SDS011;2896;53.500;10.020;2023-11-18T14:33:21;9.63;;;5.60;;
5742;SDS011;2896;53.500;10.020;2023-11-18T14:35:47;15.13;;;6.30;;
5742;SDS011;2896;53.500;10.020;2023-11-18T14:38:14;7.20;;;6.00;;
5742;SDS011;2896;53.500;10.020;2023-11-18T14:40:43;6.73;;;5.83;;
5742;SDS011;2896;53.500;10.020;2023-11-18T14:43:13;6.30;;;5.70;;
5742;SDS011;2896;53.500;10.020;2023-11-18T14:45:41;8.20;;;6.20;;
5742;SDS011;2896;53.500;10.020;2023-11-18T14:48:08;9.77;;;6.67;;
5742;SDS011;2896;53.500;10.020;2023-11-18T14:50:35;11.80;;;7.37;;
5742;SDS011;2896;53.500;10.020;2023-11-18T14:53:03;11.00;;;8.53;;
5742;SDS011;2896;53.500;10.020;2023-11-18T14:55:31;14.50;;;7.77;;
5742;SDS011;2896;53.500;10.020;2023-11-18T14:57:58;10.67;;;8.03;;
5742;SDS011;2896;53.500;10.020;2023-11-18T15:00:25;11.87;;;7.50;;
5742;SDS011;2896;53.500;10.020;2023-11-18T15:02:54;10.87;;;7.37;;
5742;SDS011;2896;53.500;10.020;2023-11-18T15:05:21;9.57;;;7.00;;
5742;SDS011;2896;53.500;10.020;2023-11-18T15:07:49;9.23;;;6.97;;
5742;SDS011;2896;53.500;10.020;2023-11-18T15:10:18;11.53;;;7.20;;